createdAt,value
2019-02-25T00:00:12.622Z,1026.20
2019-02-25T00:01:12.597Z,1026.22
2019-02-25T00:02:12.581Z,1026.29
2019-02-25T00:03:12.583Z,1026.25
2019-02-25T00:04:12.560Z,1026.26
2019-02-25T00:05:12.546Z,1026.30
2019-02-25T00:06:12.546Z,1026.29
2019-02-25T00:07:12.535Z,1026.25
2019-02-25T00:08:12.541Z,1026.25
2019-02-25T00:09:12.507Z,1026.25
2019-02-25T00:10:12.505Z,1026.22
2019-02-25T00:11:12.489Z,1026.20
2019-02-25T00:12:12.481Z,1026.22
2019-02-25T00:13:12.460Z,1026.18
2019-02-25T00:14:12.473Z,1026.22
2019-02-25T00:15:12.433Z,1026.17
2019-02-25T00:16:12.425Z,1026.07
2019-02-25T00:17:12.416Z,1026.07
2019-02-25T00:18:12.399Z,1026.13
2019-02-25T00:19:12.401Z,1026.16
2019-02-25T00:20:12.377Z,1026.13
2019-02-25T00:21:12.374Z,1026.10
2019-02-25T00:22:12.358Z,1026.12
2019-02-25T00:23:12.343Z,1026.09
2019-02-25T00:24:12.346Z,1026.10
2019-02-25T00:25:12.323Z,1026.09
2019-02-25T00:26:12.309Z,1026.09
2019-02-25T00:27:12.296Z,1026.08
2019-02-25T00:28:12.288Z,1026.07
2019-02-25T00:29:12.302Z,1026.07
2019-02-25T00:30:12.266Z,1026.08
2019-02-25T00:31:12.255Z,1026.06
2019-02-25T00:32:12.254Z,1026.05
2019-02-25T00:33:12.231Z,1026.02
2019-02-25T00:34:12.227Z,1026.02
2019-02-25T00:35:12.211Z,1026.00
2019-02-25T00:36:12.201Z,1025.99
2019-02-25T00:37:12.185Z,1025.99
2019-02-25T00:38:12.186Z,1026.02
2019-02-25T00:39:12.186Z,1025.98
2019-02-25T00:40:12.159Z,1025.96
2019-02-25T00:41:12.138Z,1025.94
2019-02-25T00:42:12.128Z,1025.93
2019-02-25T00:43:12.121Z,1025.94
2019-02-25T00:44:12.121Z,1025.95
2019-02-25T00:45:12.111Z,1025.98
2019-02-25T00:46:12.088Z,1025.98
2019-02-25T00:47:12.088Z,1025.95
2019-02-25T00:48:12.063Z,1026.01
2019-02-25T00:49:12.062Z,1026.04
2019-02-25T00:50:12.055Z,1026.04
2019-02-25T00:51:12.032Z,1025.95
2019-02-25T00:52:12.021Z,1026.05
2019-02-25T00:53:12.004Z,1025.99
2019-02-25T00:54:12.000Z,1025.99
2019-02-25T00:55:11.996Z,1026.03
2019-02-25T00:56:11.984Z,1026.02
2019-02-25T00:57:11.980Z,1026.01
2019-02-25T00:58:11.948Z,1025.97
2019-02-25T00:59:11.938Z,1025.94
2019-02-25T01:00:11.939Z,1025.97
2019-02-25T01:01:11.932Z,1025.95
2019-02-25T01:02:11.906Z,1025.99
2019-02-25T01:03:11.912Z,1025.97
2019-02-25T01:04:11.884Z,1025.97
2019-02-25T01:05:11.893Z,1025.95
2019-02-25T01:06:11.863Z,1026.01
2019-02-25T01:07:11.850Z,1026.02
2019-02-25T01:08:11.844Z,1026.03
2019-02-25T01:09:11.837Z,1025.98
2019-02-25T01:10:11.866Z,1026.03
2019-02-25T01:11:11.803Z,1026.03
2019-02-25T01:12:11.806Z,1026.08
2019-02-25T01:13:11.795Z,1026.03
2019-02-25T01:14:11.780Z,1026.07
2019-02-25T01:15:11.779Z,1026.05
2019-02-25T01:16:11.749Z,1026.06
2019-02-25T01:17:11.741Z,1026.09
2019-02-25T01:18:11.732Z,1026.07
2019-02-25T01:19:11.715Z,1026.07
2019-02-25T01:20:11.721Z,1026.00
2019-02-25T01:21:11.748Z,1026.01
2019-02-25T01:22:11.680Z,1026.03
2019-02-25T01:23:11.677Z,1025.98
2019-02-25T01:24:11.665Z,1026.00
2019-02-25T01:25:11.655Z,1025.98
2019-02-25T01:26:11.663Z,1025.92
2019-02-25T01:27:11.652Z,1025.97
2019-02-25T01:28:11.632Z,1025.95
2019-02-25T01:29:11.609Z,1025.95
2019-02-25T01:30:11.601Z,1025.95
2019-02-25T01:31:11.601Z,1025.92
2019-02-25T01:32:11.585Z,1025.89
2019-02-25T01:33:11.557Z,1025.92
2019-02-25T01:34:11.546Z,1025.88
2019-02-25T01:35:11.538Z,1025.86
2019-02-25T01:36:11.545Z,1025.85
2019-02-25T01:37:11.524Z,1025.78
2019-02-25T01:38:11.506Z,1025.79
2019-02-25T01:39:11.494Z,1025.74
2019-02-25T01:40:11.484Z,1025.75
2019-02-25T01:41:11.482Z,1025.74
2019-02-25T01:42:11.459Z,1025.73
2019-02-25T01:43:11.446Z,1025.77
2019-02-25T01:44:11.450Z,1025.78
2019-02-25T01:45:11.427Z,1025.71
2019-02-25T01:46:11.431Z,1025.71
2019-02-25T01:47:11.403Z,1025.63
2019-02-25T01:48:11.391Z,1025.64
2019-02-25T01:49:11.382Z,1025.58
2019-02-25T01:50:11.384Z,1025.61
2019-02-25T01:51:11.395Z,1025.64
2019-02-25T01:52:11.346Z,1025.67
2019-02-25T01:53:11.339Z,1025.66
2019-02-25T01:54:11.323Z,1025.66
2019-02-25T01:55:11.318Z,1025.67
2019-02-25T01:56:11.323Z,1025.63
2019-02-25T01:57:11.290Z,1025.69
2019-02-25T01:58:11.285Z,1025.73
2019-02-25T01:59:11.268Z,1025.69
2019-02-25T02:00:11.255Z,1025.72
2019-02-25T02:01:11.271Z,1025.71
2019-02-25T02:02:11.232Z,1025.68
2019-02-25T02:03:11.225Z,1025.65
2019-02-25T02:04:11.210Z,1025.69
2019-02-25T02:05:11.202Z,1025.71
2019-02-25T02:06:11.193Z,1025.72
2019-02-25T02:07:11.197Z,1025.68
2019-02-25T02:08:11.172Z,1025.69
2019-02-25T02:09:11.163Z,1025.67
2019-02-25T02:10:11.148Z,1025.76
2019-02-25T02:11:11.133Z,1025.76
2019-02-25T02:12:11.139Z,1025.75
2019-02-25T02:13:14.178Z,1025.66
2019-02-25T02:14:11.098Z,1025.67
2019-02-25T02:15:11.088Z,1025.66
2019-02-25T02:16:11.080Z,1025.70
2019-02-25T02:17:11.082Z,1025.68
2019-02-25T02:18:11.057Z,1025.64
2019-02-25T02:19:11.046Z,1025.64
2019-02-25T02:20:11.035Z,1025.66
2019-02-25T02:21:11.026Z,1025.64
2019-02-25T02:22:11.021Z,1025.70
2019-02-25T02:23:11.002Z,1025.70
2019-02-25T02:24:10.987Z,1025.68
2019-02-25T02:25:10.987Z,1025.73
2019-02-25T02:26:10.966Z,1025.67
2019-02-25T02:27:10.961Z,1025.64
2019-02-25T02:28:10.952Z,1025.65
2019-02-25T02:29:10.929Z,1025.67
2019-02-25T02:30:10.929Z,1025.71
2019-02-25T02:31:10.942Z,1025.69
2019-02-25T02:32:10.904Z,1025.68
2019-02-25T02:33:10.903Z,1025.69
2019-02-25T02:34:10.898Z,1025.68
2019-02-25T02:35:10.868Z,1025.71
2019-02-25T02:36:11.819Z,1025.68
2019-02-25T02:37:10.876Z,1025.69
2019-02-25T02:38:10.868Z,1025.67
2019-02-25T02:39:10.834Z,1025.67
2019-02-25T02:40:10.832Z,1025.67
2019-02-25T02:41:10.799Z,1025.65
2019-02-25T02:42:10.838Z,1025.69
2019-02-25T02:43:10.800Z,1025.73
2019-02-25T02:44:10.763Z,1025.67
2019-02-25T02:45:10.760Z,1025.68
2019-02-25T02:46:10.747Z,1025.63
2019-02-25T02:47:10.736Z,1025.63
2019-02-25T02:48:10.757Z,1025.66
2019-02-25T02:49:10.713Z,1025.62
2019-02-25T02:50:10.714Z,1025.65
2019-02-25T02:51:10.694Z,1025.62
2019-02-25T02:52:10.681Z,1025.62
2019-02-25T02:53:10.677Z,1025.62
2019-02-25T02:54:10.686Z,1025.61
2019-02-25T02:55:10.693Z,1025.63
2019-02-25T02:56:10.631Z,1025.67
2019-02-25T02:57:10.621Z,1025.63
2019-02-25T02:58:10.616Z,1025.66
2019-02-25T02:59:10.592Z,1025.69
2019-02-25T03:00:10.596Z,1025.71
2019-02-25T03:01:10.574Z,1025.72
2019-02-25T03:02:10.565Z,1025.73
2019-02-25T03:03:10.581Z,1025.74
2019-02-25T03:04:10.544Z,1025.75
2019-02-25T03:05:10.532Z,1025.75
2019-02-25T03:06:10.540Z,1025.71
2019-02-25T03:07:10.505Z,1025.76
2019-02-25T03:08:10.515Z,1025.81
2019-02-25T03:09:10.494Z,1025.75
2019-02-25T03:10:10.480Z,1025.79
2019-02-25T03:11:10.467Z,1025.79
2019-02-25T03:12:10.464Z,1025.75
2019-02-25T03:13:10.438Z,1025.76
2019-02-25T03:14:10.441Z,1025.76
2019-02-25T03:15:10.416Z,1025.83
2019-02-25T03:16:10.419Z,1025.82
2019-02-25T03:17:10.401Z,1025.80
2019-02-25T03:18:10.383Z,1025.80
2019-02-25T03:19:10.413Z,1025.81
2019-02-25T03:20:10.380Z,1025.75
2019-02-25T03:21:10.358Z,1025.79
2019-02-25T03:22:10.345Z,1025.76
2019-02-25T03:23:10.331Z,1025.77
2019-02-25T03:24:10.368Z,1025.81
2019-02-25T03:25:10.376Z,1025.80
2019-02-25T03:26:10.291Z,1025.81
2019-02-25T03:27:10.292Z,1025.89
2019-02-25T03:28:10.270Z,1025.90
2019-02-25T03:29:10.286Z,1025.98
2019-02-25T03:30:10.248Z,1025.98
2019-02-25T03:31:10.241Z,1025.95
2019-02-25T03:32:10.233Z,1025.96
2019-02-25T03:33:10.225Z,1025.99
2019-02-25T03:34:10.222Z,1026.03
2019-02-25T03:35:10.202Z,1026.02
2019-02-25T03:36:10.180Z,1026.06
2019-02-25T03:37:10.175Z,1026.00
2019-02-25T03:38:10.159Z,1025.97
2019-02-25T03:39:10.157Z,1025.97
2019-02-25T03:40:10.152Z,1025.99
2019-02-25T03:41:10.125Z,1025.98
2019-02-25T03:42:10.115Z,1025.99
2019-02-25T03:43:10.127Z,1026.01
2019-02-25T03:44:10.098Z,1025.96
2019-02-25T03:45:10.093Z,1025.97
2019-02-25T03:46:10.074Z,1025.98
2019-02-25T03:47:10.062Z,1025.96
2019-02-25T03:48:10.051Z,1025.95
2019-02-25T03:49:10.035Z,1025.96
2019-02-25T03:50:10.051Z,1025.94
2019-02-25T03:51:10.027Z,1025.94
2019-02-25T03:52:10.001Z,1025.91
2019-02-25T03:53:10.047Z,1025.88
2019-02-25T03:54:09.979Z,1025.86
2019-02-25T03:55:10.002Z,1025.84
2019-02-25T03:56:09.972Z,1025.86
2019-02-25T03:57:09.945Z,1025.90
2019-02-25T03:58:09.946Z,1025.88
2019-02-25T03:59:09.948Z,1025.92
2019-02-25T04:00:09.915Z,1025.95
2019-02-25T04:01:09.911Z,1025.95
2019-02-25T04:02:09.919Z,1026.04
2019-02-25T04:03:09.883Z,1026.11
2019-02-25T04:04:09.882Z,1026.09
2019-02-25T04:05:09.857Z,1026.09
2019-02-25T04:06:09.858Z,1026.07
2019-02-25T04:07:09.838Z,1026.07
2019-02-25T04:08:09.849Z,1026.06
2019-02-25T04:09:09.811Z,1026.02
2019-02-25T04:10:09.812Z,1025.95
2019-02-25T04:11:09.809Z,1025.89
2019-02-25T04:12:09.785Z,1025.89
2019-02-25T04:13:09.832Z,1025.93
2019-02-25T04:14:09.793Z,1025.91
2019-02-25T04:15:09.755Z,1025.92
2019-02-25T04:16:09.755Z,1025.89
2019-02-25T04:17:09.746Z,1025.88
2019-02-25T04:18:09.712Z,1025.89
2019-02-25T04:19:09.705Z,1025.87
2019-02-25T04:20:09.692Z,1025.90
2019-02-25T04:21:09.706Z,1025.89
2019-02-25T04:22:09.667Z,1025.91
2019-02-25T04:23:09.668Z,1025.85
2019-02-25T04:24:09.642Z,1025.80
2019-02-25T04:25:09.644Z,1025.81
2019-02-25T04:26:09.634Z,1025.77
2019-02-25T04:27:09.610Z,1025.78
2019-02-25T04:28:09.608Z,1025.79
2019-02-25T04:29:09.588Z,1025.77
2019-02-25T04:30:09.577Z,1025.78
2019-02-25T04:31:09.588Z,1025.75
2019-02-25T04:32:09.562Z,1025.81
2019-02-25T04:33:09.547Z,1025.81
2019-02-25T04:34:09.530Z,1025.78
2019-02-25T04:35:09.520Z,1025.78
2019-02-25T04:36:09.521Z,1025.82
2019-02-25T04:37:09.518Z,1025.83
2019-02-25T04:38:09.494Z,1025.83
2019-02-25T04:39:09.478Z,1025.86
2019-02-25T04:40:09.498Z,1025.85
2019-02-25T04:41:09.454Z,1025.84
2019-02-25T04:42:09.457Z,1025.78
2019-02-25T04:43:09.510Z,1025.82
2019-02-25T04:44:09.422Z,1025.78
2019-02-25T04:45:09.413Z,1025.83
2019-02-25T04:46:09.400Z,1025.84
2019-02-25T04:47:09.403Z,1025.85
2019-02-25T04:48:09.374Z,1025.84
2019-02-25T04:49:09.424Z,1025.86
2019-02-25T04:50:09.353Z,1025.87
2019-02-25T04:51:09.349Z,1025.89
2019-02-25T04:52:09.341Z,1025.92
2019-02-25T04:53:09.345Z,1025.88
2019-02-25T04:54:09.361Z,1025.87
2019-02-25T04:55:09.315Z,1025.83
2019-02-25T04:56:09.285Z,1025.88
2019-02-25T04:57:09.283Z,1025.94
2019-02-25T04:58:09.265Z,1025.96
2019-02-25T04:59:09.253Z,1026.02
2019-02-25T05:00:09.239Z,1026.00
2019-02-25T05:01:09.237Z,1026.04
2019-02-25T05:02:09.246Z,1026.02
2019-02-25T05:03:09.220Z,1026.02
2019-02-25T05:04:09.196Z,1026.06
2019-02-25T05:05:09.187Z,1026.06
2019-02-25T05:06:09.178Z,1026.00
2019-02-25T05:07:09.216Z,1026.03
2019-02-25T05:08:09.168Z,1025.99
2019-02-25T05:09:09.173Z,1025.99
2019-02-25T05:10:09.187Z,1026.05
2019-02-25T05:11:09.119Z,1026.06
2019-02-25T05:12:09.114Z,1025.99
2019-02-25T05:13:09.117Z,1025.97
2019-02-25T05:14:09.086Z,1025.98
2019-02-25T05:15:09.107Z,1025.94
2019-02-25T05:16:09.061Z,1025.94
2019-02-25T05:17:09.046Z,1025.97
2019-02-25T05:18:09.058Z,1025.97
2019-02-25T05:19:09.026Z,1025.96
2019-02-25T05:20:09.013Z,1025.98
2019-02-25T05:21:09.005Z,1025.96
2019-02-25T05:22:09.004Z,1025.93
2019-02-25T05:23:09.022Z,1025.97
2019-02-25T05:24:09.005Z,1025.96
2019-02-25T05:25:08.959Z,1025.94
2019-02-25T05:26:08.952Z,1025.91
2019-02-25T05:27:08.945Z,1025.89
2019-02-25T05:28:08.934Z,1025.86
2019-02-25T05:29:08.921Z,1025.87
2019-02-25T05:30:09.009Z,1025.87
2019-02-25T05:31:08.894Z,1025.83
2019-02-25T05:32:08.887Z,1025.82
2019-02-25T05:33:08.877Z,1025.78
2019-02-25T05:34:08.857Z,1025.79
2019-02-25T05:35:08.856Z,1025.81
2019-02-25T05:36:08.848Z,1025.83
2019-02-25T05:37:08.877Z,1025.85
2019-02-25T05:38:08.824Z,1025.86
2019-02-25T05:39:08.805Z,1025.84
2019-02-25T05:40:08.798Z,1025.86
2019-02-25T05:41:08.786Z,1025.86
2019-02-25T05:42:08.773Z,1025.86
2019-02-25T05:43:08.765Z,1025.88
2019-02-25T05:44:08.761Z,1025.83
2019-02-25T05:45:08.734Z,1025.86
2019-02-25T05:46:08.721Z,1025.89
2019-02-25T05:47:08.712Z,1025.87
2019-02-25T05:48:08.725Z,1025.86
2019-02-25T05:49:08.695Z,1025.84
2019-02-25T05:50:08.679Z,1025.92
2019-02-25T05:51:08.666Z,1025.91
2019-02-25T05:52:08.660Z,1025.98
2019-02-25T05:53:08.679Z,1026.02
2019-02-25T05:54:08.638Z,1026.00
2019-02-25T05:55:08.630Z,1026.06
2019-02-25T05:56:08.612Z,1026.02
2019-02-25T05:57:08.603Z,1026.08
2019-02-25T05:58:08.596Z,1026.12
2019-02-25T05:59:08.611Z,1026.13
2019-02-25T06:00:08.578Z,1026.17
2019-02-25T06:01:08.572Z,1026.15
2019-02-25T06:02:08.543Z,1026.16
2019-02-25T06:03:08.557Z,1026.18
2019-02-25T06:04:08.520Z,1026.22
2019-02-25T06:05:08.514Z,1026.23
2019-02-25T06:06:08.509Z,1026.21
2019-02-25T06:07:10.420Z,1026.23
2019-02-25T06:08:08.510Z,1026.19
2019-02-25T06:09:08.472Z,1026.10
2019-02-25T06:10:08.458Z,1026.11
2019-02-25T06:11:08.444Z,1026.08
2019-02-25T06:12:08.442Z,1026.16
2019-02-25T06:13:08.418Z,1026.12
2019-02-25T06:14:09.024Z,1026.10
2019-02-25T06:15:08.399Z,1026.05
2019-02-25T06:16:08.385Z,1026.07
2019-02-25T06:17:08.375Z,1026.10
2019-02-25T06:18:08.373Z,1026.10
2019-02-25T06:19:08.377Z,1026.12
2019-02-25T06:20:08.346Z,1026.12
2019-02-25T06:21:08.331Z,1026.12
2019-02-25T06:22:08.317Z,1026.10
2019-02-25T06:23:08.321Z,1026.09
2019-02-25T06:24:08.307Z,1026.03
2019-02-25T06:25:08.296Z,1026.04
2019-02-25T06:26:08.281Z,1026.05
2019-02-25T06:27:08.264Z,1026.06
2019-02-25T06:28:08.253Z,1026.09
2019-02-25T06:29:08.273Z,1026.08
2019-02-25T06:30:08.237Z,1026.08
2019-02-25T06:31:08.219Z,1026.12
2019-02-25T06:32:08.206Z,1026.11
2019-02-25T06:33:08.201Z,1026.09
2019-02-25T06:34:08.184Z,1026.18
2019-02-25T06:35:08.201Z,1026.15
2019-02-25T06:36:08.204Z,1026.16
2019-02-25T06:37:08.165Z,1026.13
2019-02-25T06:38:08.144Z,1026.11
2019-02-25T06:39:08.131Z,1026.16
2019-02-25T06:40:08.133Z,1026.16
2019-02-25T06:41:08.113Z,1026.15
2019-02-25T06:42:08.100Z,1026.17
2019-02-25T06:43:08.082Z,1026.23
2019-02-25T06:44:08.078Z,1026.24
2019-02-25T06:45:08.118Z,1026.24
2019-02-25T06:46:08.049Z,1026.24
2019-02-25T06:47:08.050Z,1026.23
2019-02-25T06:48:08.042Z,1026.17
2019-02-25T06:49:08.012Z,1026.16
2019-02-25T06:50:08.015Z,1026.19
2019-02-25T06:51:07.998Z,1026.20
2019-02-25T06:52:07.982Z,1026.22
2019-02-25T06:53:07.975Z,1026.25
2019-02-25T06:54:07.975Z,1026.30
2019-02-25T06:55:07.955Z,1026.31
2019-02-25T06:56:07.941Z,1026.30
2019-02-25T06:57:07.931Z,1026.26
2019-02-25T06:58:07.924Z,1026.21
2019-02-25T06:59:07.909Z,1026.22
2019-02-25T07:00:07.914Z,1026.24
2019-02-25T07:01:07.890Z,1026.31
2019-02-25T07:02:07.873Z,1026.25
2019-02-25T07:03:07.861Z,1026.22
2019-02-25T07:04:07.847Z,1026.24
2019-02-25T07:05:07.848Z,1026.30
2019-02-25T07:06:07.833Z,1026.30
2019-02-25T07:07:07.815Z,1026.27
2019-02-25T07:08:07.800Z,1026.29
2019-02-25T07:09:07.791Z,1026.26
2019-02-25T07:10:07.795Z,1026.32
2019-02-25T07:11:07.778Z,1026.35
2019-02-25T07:12:07.786Z,1026.34
2019-02-25T07:13:07.749Z,1026.38
2019-02-25T07:14:07.734Z,1026.31
2019-02-25T07:15:07.731Z,1026.32
2019-02-25T07:16:07.743Z,1026.31
2019-02-25T07:17:07.714Z,1026.29
2019-02-25T07:18:07.689Z,1026.29
2019-02-25T07:19:07.675Z,1026.27
2019-02-25T07:20:07.666Z,1026.24
2019-02-25T07:21:07.672Z,1026.29
2019-02-25T07:22:07.653Z,1026.33
2019-02-25T07:23:07.642Z,1026.35
2019-02-25T07:24:07.624Z,1026.31
2019-02-25T07:25:07.613Z,1026.33
2019-02-25T07:26:07.608Z,1026.35
2019-02-25T07:27:07.600Z,1026.35
2019-02-25T07:28:07.589Z,1026.34
2019-02-25T07:29:07.583Z,1026.37
2019-02-25T07:30:07.554Z,1026.33
2019-02-25T07:31:07.551Z,1026.31
2019-02-25T07:32:07.551Z,1026.31
2019-02-25T07:33:07.532Z,1026.28
2019-02-25T07:34:07.509Z,1026.31
2019-02-25T07:35:07.500Z,1026.34
2019-02-25T07:36:07.501Z,1026.36
2019-02-25T07:37:07.482Z,1026.36
2019-02-25T07:38:07.473Z,1026.38
2019-02-25T07:39:07.454Z,1026.32
2019-02-25T07:40:07.438Z,1026.36
2019-02-25T07:41:07.431Z,1026.33
2019-02-25T07:42:07.440Z,1026.37
2019-02-25T07:43:07.407Z,1026.39
2019-02-25T07:44:07.403Z,1026.39
2019-02-25T07:45:07.386Z,1026.39
2019-02-25T07:46:07.378Z,1026.40
2019-02-25T07:47:07.375Z,1026.38
2019-02-25T07:48:07.355Z,1026.33
2019-02-25T07:49:07.345Z,1026.25
2019-02-25T07:50:07.340Z,1026.34
2019-02-25T07:51:07.326Z,1026.33
2019-02-25T07:52:07.338Z,1026.29
2019-02-25T07:53:07.294Z,1026.30
2019-02-25T07:54:07.284Z,1026.30
2019-02-25T07:55:07.276Z,1026.30
2019-02-25T07:56:07.265Z,1026.34
2019-02-25T07:57:07.287Z,1026.32
2019-02-25T07:58:07.247Z,1026.33
2019-02-25T07:59:07.231Z,1026.34
2019-02-25T08:00:07.222Z,1026.36
2019-02-25T08:01:07.203Z,1026.39
2019-02-25T08:02:07.211Z,1026.33
2019-02-25T08:03:07.185Z,1026.38
2019-02-25T08:04:07.197Z,1026.33
2019-02-25T08:05:07.179Z,1026.31
2019-02-25T08:06:07.153Z,1026.32
2019-02-25T08:07:07.145Z,1026.31
2019-02-25T08:08:07.150Z,1026.31
2019-02-25T08:09:07.130Z,1026.31
2019-02-25T08:10:07.103Z,1026.37
2019-02-25T08:11:07.094Z,1026.40
2019-02-25T08:12:07.117Z,1026.36
2019-02-25T08:13:07.069Z,1026.38
2019-02-25T08:14:07.057Z,1026.36
2019-02-25T08:15:08.967Z,1026.37
2019-02-25T08:16:07.037Z,1026.34
2019-02-25T08:17:07.027Z,1026.33
2019-02-25T08:18:07.025Z,1026.38
2019-02-25T08:19:07.013Z,1026.38
2019-02-25T08:20:06.991Z,1026.43
2019-02-25T08:21:06.996Z,1026.44
2019-02-25T08:22:06.990Z,1026.46
2019-02-25T08:23:06.966Z,1026.43
2019-02-25T08:24:06.950Z,1026.43
2019-02-25T08:25:06.955Z,1026.48
2019-02-25T08:26:06.928Z,1026.45
2019-02-25T08:27:06.920Z,1026.45
2019-02-25T08:28:06.912Z,1026.44
2019-02-25T08:29:06.891Z,1026.42
2019-02-25T08:30:06.883Z,1026.37
2019-02-25T08:31:06.899Z,1026.38
2019-02-25T08:32:06.866Z,1026.41
2019-02-25T08:33:06.899Z,1026.45
2019-02-25T08:34:06.840Z,1026.46
2019-02-25T08:35:06.822Z,1026.42
2019-02-25T08:36:06.828Z,1026.44
2019-02-25T08:37:06.806Z,1026.44
2019-02-25T08:38:06.817Z,1026.44
2019-02-25T08:39:06.827Z,1026.45
2019-02-25T08:40:06.766Z,1026.38
2019-02-25T08:41:06.758Z,1026.38
2019-02-25T08:42:06.744Z,1026.40
2019-02-25T08:43:06.752Z,1026.39
2019-02-25T08:44:06.724Z,1026.41
2019-02-25T08:45:06.719Z,1026.52
2019-02-25T08:46:06.703Z,1026.52
2019-02-25T08:47:06.691Z,1026.51
2019-02-25T08:48:06.681Z,1026.54
2019-02-25T08:49:06.689Z,1026.55
2019-02-25T08:50:06.658Z,1026.55
2019-02-25T08:51:06.653Z,1026.62
2019-02-25T08:52:06.634Z,1026.60
2019-02-25T08:53:06.625Z,1026.62
2019-02-25T08:54:06.630Z,1026.60
2019-02-25T08:55:06.601Z,1026.69
2019-02-25T08:56:06.605Z,1026.67
2019-02-25T08:57:06.577Z,1026.67
2019-02-25T08:58:06.581Z,1026.68
2019-02-25T08:59:06.564Z,1026.63
2019-02-25T09:00:06.541Z,1026.63
2019-02-25T09:01:06.535Z,1026.64
2019-02-25T09:02:06.534Z,1026.70
2019-02-25T09:03:06.509Z,1026.69
2019-02-25T09:04:06.514Z,1026.71
2019-02-25T09:05:06.485Z,1026.77
2019-02-25T09:06:06.476Z,1026.75
2019-02-25T09:07:06.465Z,1026.74
2019-02-25T09:08:06.470Z,1026.72
2019-02-25T09:09:06.453Z,1026.66
2019-02-25T09:10:06.428Z,1026.67
2019-02-25T09:11:13.874Z,1026.68
2019-02-25T09:12:07.410Z,1026.67
2019-02-25T09:13:06.397Z,1026.65
2019-02-25T09:14:06.411Z,1026.67
2019-02-25T09:15:06.373Z,1026.70
2019-02-25T09:16:06.363Z,1026.71
2019-02-25T09:17:06.350Z,1026.66
2019-02-25T09:18:06.355Z,1026.66
2019-02-25T09:19:06.337Z,1026.68
2019-02-25T09:20:06.331Z,1026.71
2019-02-25T09:21:08.075Z,1026.67
2019-02-25T09:22:06.294Z,1026.65
2019-02-25T09:23:06.282Z,1026.65
2019-02-25T09:24:06.274Z,1026.69
2019-02-25T09:25:06.280Z,1026.68
2019-02-25T09:26:06.251Z,1026.69
2019-02-25T09:27:06.238Z,1026.66
2019-02-25T09:28:06.227Z,1026.70
2019-02-25T09:29:06.215Z,1026.74
2019-02-25T09:30:06.215Z,1026.76
2019-02-25T09:31:06.205Z,1026.70
2019-02-25T09:32:06.205Z,1026.71
2019-02-25T09:33:06.184Z,1026.66
2019-02-25T09:34:06.163Z,1026.70
2019-02-25T09:35:06.161Z,1026.71
2019-02-25T09:36:06.147Z,1026.73
2019-02-25T09:37:06.126Z,1026.70
2019-02-25T09:38:06.116Z,1026.69
2019-02-25T09:39:06.107Z,1026.69
2019-02-25T09:40:06.115Z,1026.70
2019-02-25T09:41:06.078Z,1026.66
2019-02-25T09:42:06.072Z,1026.67
2019-02-25T09:43:06.066Z,1026.66
2019-02-25T09:44:06.047Z,1026.64
2019-02-25T09:45:06.034Z,1026.64
2019-02-25T09:46:06.033Z,1026.62
2019-02-25T09:47:06.027Z,1026.61
2019-02-25T09:48:06.011Z,1026.66
2019-02-25T09:49:05.994Z,1026.67
2019-02-25T09:50:05.978Z,1026.70
2019-02-25T09:51:06.007Z,1026.71
2019-02-25T09:52:07.000Z,1026.74
2019-02-25T09:53:07.363Z,1026.70
2019-02-25T09:54:05.936Z,1026.73
2019-02-25T09:55:05.922Z,1026.76
2019-02-25T09:56:05.969Z,1026.71
2019-02-25T09:57:05.903Z,1026.68
2019-02-25T09:58:05.885Z,1026.67
2019-02-25T09:59:05.910Z,1026.64
2019-02-25T10:00:05.865Z,1026.65
2019-02-25T10:01:05.862Z,1026.59
2019-02-25T10:02:05.843Z,1026.59
2019-02-25T10:03:05.829Z,1026.50
2019-02-25T10:04:05.818Z,1026.54
2019-02-25T10:05:05.807Z,1026.50
2019-02-25T10:06:05.821Z,1026.50
2019-02-25T10:07:05.781Z,1026.52
2019-02-25T10:08:05.772Z,1026.56
2019-02-25T10:09:05.758Z,1026.52
2019-02-25T10:10:05.749Z,1026.55
2019-02-25T10:11:05.759Z,1026.46
2019-02-25T10:12:05.727Z,1026.44
2019-02-25T10:13:05.716Z,1026.45
2019-02-25T10:14:05.702Z,1026.48
2019-02-25T10:15:05.697Z,1026.49
2019-02-25T10:16:05.705Z,1026.49
2019-02-25T10:17:05.683Z,1026.51
2019-02-25T10:18:05.668Z,1026.46
2019-02-25T10:19:05.658Z,1026.51
2019-02-25T10:20:05.635Z,1026.55
2019-02-25T10:21:05.632Z,1026.49
2019-02-25T10:22:05.620Z,1026.50
2019-02-25T10:23:05.602Z,1026.55
2019-02-25T10:24:05.591Z,1026.53
2019-02-25T10:25:05.580Z,1026.56
2019-02-25T10:26:05.567Z,1026.50
2019-02-25T10:27:05.574Z,1026.49
2019-02-25T10:28:05.551Z,1026.50
2019-02-25T10:29:05.533Z,1026.52
2019-02-25T10:30:05.522Z,1026.47
2019-02-25T10:31:05.510Z,1026.45
2019-02-25T10:32:06.527Z,1026.45
2019-02-25T10:33:05.488Z,1026.45
2019-02-25T10:34:05.477Z,1026.40
2019-02-25T10:35:05.465Z,1026.45
2019-02-25T10:36:05.456Z,1026.44
2019-02-25T10:37:05.466Z,1026.46
2019-02-25T10:38:05.436Z,1026.49
2019-02-25T10:39:05.426Z,1026.44
2019-02-25T10:40:05.426Z,1026.43
2019-02-25T10:41:05.426Z,1026.48
2019-02-25T10:42:05.399Z,1026.49
2019-02-25T10:43:05.375Z,1026.50
2019-02-25T10:44:06.501Z,1026.56
2019-02-25T10:45:07.234Z,1026.51
2019-02-25T10:46:06.987Z,1026.50
2019-02-25T10:47:05.339Z,1026.51
2019-02-25T10:48:05.319Z,1026.55
2019-02-25T10:49:11.553Z,1026.50
2019-02-25T10:50:07.458Z,1026.51
2019-02-25T10:51:07.000Z,1026.49
2019-02-25T10:52:07.060Z,1026.53
2019-02-25T10:53:05.266Z,1026.45
2019-02-25T10:54:05.252Z,1026.41
2019-02-25T10:55:05.250Z,1026.41
2019-02-25T10:56:05.229Z,1026.41
2019-02-25T10:57:05.235Z,1026.47
2019-02-25T10:58:05.214Z,1026.45
2019-02-25T10:59:06.217Z,1026.39
2019-02-25T11:00:07.272Z,1026.36
2019-02-25T11:01:05.172Z,1026.31
2019-02-25T11:02:05.192Z,1026.33
2019-02-25T11:03:05.162Z,1026.29
2019-02-25T11:04:05.140Z,1026.22
2019-02-25T11:05:05.132Z,1026.21
2019-02-25T11:06:05.146Z,1026.14
2019-02-25T11:07:06.897Z,1026.11
2019-02-25T11:08:05.834Z,1026.17
2019-02-25T11:09:06.880Z,1026.20
2019-02-25T11:10:05.092Z,1026.17
2019-02-25T11:11:05.059Z,1026.14
2019-02-25T11:12:05.048Z,1026.13
2019-02-25T11:13:05.048Z,1026.05
2019-02-25T11:14:06.712Z,1026.07
2019-02-25T11:15:05.734Z,1026.09
2019-02-25T11:16:05.030Z,1026.09
2019-02-25T11:17:04.993Z,1026.14
2019-02-25T11:18:04.995Z,1026.04
2019-02-25T11:19:04.970Z,1026.08
2019-02-25T11:20:05.691Z,1026.08
2019-02-25T11:21:06.068Z,1026.17
2019-02-25T11:22:05.565Z,1026.17
2019-02-25T11:23:04.937Z,1026.15
2019-02-25T11:24:04.915Z,1026.14
2019-02-25T11:25:04.905Z,1026.14
2019-02-25T11:26:04.892Z,1026.11
2019-02-25T11:27:05.571Z,1026.08
2019-02-25T11:28:06.923Z,1026.10
2019-02-25T11:29:05.556Z,1026.11
2019-02-25T11:30:04.851Z,1026.09
2019-02-25T11:31:04.852Z,1026.07
2019-02-25T11:32:04.851Z,1026.13
2019-02-25T11:33:04.823Z,1026.12
2019-02-25T11:34:05.697Z,1026.06
2019-02-25T11:35:06.298Z,1026.08
2019-02-25T11:36:04.777Z,1026.06
2019-02-25T11:37:04.788Z,1026.04
2019-02-25T11:38:04.775Z,1026.07
2019-02-25T11:39:06.769Z,1026.12
2019-02-25T11:40:04.760Z,1026.07
2019-02-25T11:41:07.137Z,1026.08
2019-02-25T11:42:06.112Z,1026.10
2019-02-25T11:43:04.729Z,1026.06
2019-02-25T11:44:04.691Z,1026.07
2019-02-25T11:45:04.706Z,1026.09
2019-02-25T11:46:04.713Z,1026.16
2019-02-25T11:47:04.657Z,1026.16
2019-02-25T11:48:04.674Z,1026.17
2019-02-25T11:49:04.656Z,1026.19
2019-02-25T11:50:04.620Z,1026.16
2019-02-25T11:51:04.609Z,1026.19
2019-02-25T11:52:04.634Z,1026.20
2019-02-25T11:53:04.584Z,1026.10
2019-02-25T11:54:04.587Z,1026.17
2019-02-25T11:55:04.566Z,1026.09
2019-02-25T11:56:04.562Z,1026.02
2019-02-25T11:57:04.538Z,1026.05
2019-02-25T11:58:04.525Z,1026.07
2019-02-25T11:59:04.529Z,1026.12
2019-02-25T12:00:04.504Z,1026.11
2019-02-25T12:01:04.504Z,1026.11
2019-02-25T12:02:04.489Z,1026.12
2019-02-25T12:03:04.470Z,1026.07
2019-02-25T12:04:04.470Z,1026.11
2019-02-25T12:05:04.451Z,1025.99